createdAt,value
2018-10-05T00:00:28.909Z,11.20
2018-10-05T00:02:57.109Z,11.20
2018-10-05T00:05:25.305Z,11.20
2018-10-05T00:07:53.489Z,11.20
2018-10-05T00:10:21.681Z,11.30
2018-10-05T00:12:49.907Z,11.20
2018-10-05T00:15:18.355Z,11.20
2018-10-05T00:17:46.550Z,11.30
2018-10-05T00:20:14.749Z,11.30
2018-10-05T00:22:42.953Z,11.20
2018-10-05T00:25:11.158Z,11.30
2018-10-05T00:27:39.393Z,11.20
2018-10-05T00:30:07.593Z,11.20
2018-10-05T00:32:35.809Z,11.20
2018-10-05T00:35:04.109Z,11.20
2018-10-05T00:37:32.602Z,11.20
2018-10-05T00:40:00.807Z,11.20
2018-10-05T00:42:29.040Z,11.20
2018-10-05T00:44:57.228Z,11.10
2018-10-05T00:47:25.426Z,11.10
2018-10-05T00:49:53.628Z,11.10
2018-10-05T00:52:21.806Z,11.10
2018-10-05T00:54:50.037Z,11.00
2018-10-05T00:57:18.253Z,11.00
2018-10-05T00:59:46.705Z,11.00
2018-10-05T01:02:14.903Z,10.90
2018-10-05T01:04:43.089Z,10.90
2018-10-05T01:07:11.306Z,10.90
2018-10-05T01:09:39.509Z,10.90
2018-10-05T01:12:07.762Z,10.90
2018-10-05T01:14:35.952Z,10.90
2018-10-05T01:17:04.154Z,10.80
2018-10-05T01:19:32.377Z,10.80
2018-10-05T01:22:00.889Z,10.80
2018-10-05T01:24:29.144Z,10.80
2018-10-05T01:26:57.325Z,10.70
2018-10-05T01:29:25.518Z,10.70
2018-10-05T01:31:53.746Z,10.70
2018-10-05T01:34:21.937Z,10.70
2018-10-05T01:36:50.140Z,10.70
2018-10-05T01:39:18.333Z,10.60
2018-10-05T01:41:46.541Z,10.60
2018-10-05T01:44:14.765Z,10.60
2018-10-05T01:46:42.949Z,10.60
2018-10-05T01:49:11.173Z,10.60
2018-10-05T01:51:39.445Z,10.50
2018-10-05T01:54:07.714Z,10.50
2018-10-05T01:56:36.388Z,10.60
2018-10-05T01:59:04.621Z,10.60
2018-10-05T02:01:33.221Z,10.60
2018-10-05T02:04:01.581Z,10.60
2018-10-05T02:06:29.873Z,10.60
2018-10-05T02:08:58.095Z,10.60
2018-10-05T02:11:26.309Z,10.50
2018-10-05T02:13:54.523Z,10.50
2018-10-05T02:16:22.930Z,10.40
2018-10-05T02:18:51.110Z,10.30
2018-10-05T02:21:19.342Z,10.20
2018-10-05T02:23:47.533Z,10.10
2018-10-05T02:26:15.970Z,10.00
2018-10-05T02:28:44.170Z,10.00
2018-10-05T02:31:12.373Z,10.00
2018-10-05T02:33:40.584Z,10.00
2018-10-05T02:36:08.762Z,10.00
2018-10-05T02:38:36.973Z,9.90
2018-10-05T02:41:05.229Z,9.90
2018-10-05T02:43:33.959Z,9.90
2018-10-05T02:46:02.219Z,9.80
2018-10-05T02:48:30.445Z,9.80
2018-10-05T02:50:58.661Z,9.60
2018-10-05T02:53:26.855Z,9.60
2018-10-05T02:55:55.078Z,9.50
2018-10-05T02:58:23.269Z,9.50
2018-10-05T03:01:02.786Z,9.50
2018-10-05T03:03:30.977Z,9.60
2018-10-05T03:05:59.213Z,9.60
2018-10-05T03:08:27.409Z,9.50
2018-10-05T03:10:55.618Z,9.50
2018-10-05T03:13:23.828Z,9.50
2018-10-05T03:15:52.009Z,9.50
2018-10-05T03:18:20.201Z,9.40
2018-10-05T03:20:48.417Z,9.40
2018-10-05T03:23:16.596Z,9.30
2018-10-05T03:25:44.801Z,9.30
2018-10-05T03:28:13.002Z,9.20
2018-10-05T03:30:41.532Z,9.20
2018-10-05T03:33:09.706Z,9.20
2018-10-05T03:35:37.919Z,9.20
2018-10-05T03:38:06.357Z,9.20
2018-10-05T03:40:34.539Z,9.20
2018-10-05T03:43:02.706Z,9.10
2018-10-05T03:45:30.891Z,9.10
2018-10-05T03:47:59.085Z,9.00
2018-10-05T03:50:27.283Z,9.00
2018-10-05T03:52:55.669Z,9.00
2018-10-05T03:55:23.865Z,9.00
2018-10-05T03:57:52.089Z,8.90
2018-10-05T04:00:20.287Z,8.90
2018-10-05T04:02:48.480Z,8.90
2018-10-05T04:05:16.681Z,8.90
2018-10-05T04:07:44.885Z,8.90
2018-10-05T04:10:13.069Z,8.80
2018-10-05T04:12:41.289Z,8.80
2018-10-05T04:15:09.573Z,8.70
2018-10-05T04:17:37.773Z,8.70
2018-10-05T04:20:06.017Z,8.80
2018-10-05T04:22:34.225Z,8.80
2018-10-05T04:25:02.441Z,8.80
2018-10-05T04:27:30.645Z,8.90
2018-10-05T04:29:58.870Z,8.90
2018-10-05T04:32:27.114Z,8.90
2018-10-05T04:34:55.316Z,8.80
2018-10-05T04:37:23.950Z,8.90
2018-10-05T04:39:52.144Z,8.90
2018-10-05T04:42:20.357Z,8.90
2018-10-05T04:44:48.807Z,8.90
2018-10-05T04:47:17.101Z,8.90
2018-10-05T04:49:45.493Z,8.90
2018-10-05T04:52:13.617Z,8.90
2018-10-05T04:54:41.801Z,8.90
2018-10-05T04:57:10.009Z,8.90
2018-10-05T04:59:38.221Z,8.90
2018-10-05T05:02:06.452Z,8.90
2018-10-05T05:04:34.642Z,8.90
2018-10-05T05:07:02.883Z,8.90
2018-10-05T05:09:31.045Z,8.90
2018-10-05T05:11:59.363Z,8.80
2018-10-05T05:14:27.545Z,8.80
2018-10-05T05:16:55.739Z,8.80
2018-10-05T05:19:24.008Z,8.80
2018-10-05T05:21:52.414Z,8.70
2018-10-05T05:24:20.623Z,8.70
2018-10-05T05:26:48.817Z,8.60
2018-10-05T05:29:17.092Z,8.50
2018-10-05T05:31:45.299Z,8.50
2018-10-05T05:34:13.670Z,8.50
2018-10-05T05:36:41.909Z,8.50
2018-10-05T05:39:10.222Z,8.50
2018-10-05T05:41:38.429Z,8.50
2018-10-05T05:44:06.885Z,8.60
2018-10-05T05:46:35.262Z,8.60
2018-10-05T05:49:03.485Z,8.50
2018-10-05T05:51:31.695Z,8.40
2018-10-05T05:53:59.909Z,8.30
2018-10-05T05:56:28.104Z,8.30
2018-10-05T05:58:56.341Z,8.30
2018-10-05T06:01:24.530Z,8.30
2018-10-05T06:03:52.745Z,8.40
2018-10-05T06:06:21.066Z,8.50
2018-10-05T06:08:49.345Z,8.50
2018-10-05T06:11:17.549Z,8.50
2018-10-05T06:13:45.790Z,8.60
2018-10-05T06:16:14.020Z,8.70
2018-10-05T06:18:42.217Z,8.70
2018-10-05T06:21:10.715Z,8.80
2018-10-05T06:23:38.911Z,8.90
2018-10-05T06:26:07.161Z,9.00
2018-10-05T06:28:35.561Z,9.10
2018-10-05T06:31:03.930Z,9.20
2018-10-05T06:33:32.005Z,9.30
2018-10-05T06:36:00.192Z,9.50
2018-10-05T06:38:28.409Z,9.70
2018-10-05T06:40:56.645Z,9.80
2018-10-05T06:43:25.098Z,9.90
2018-10-05T06:45:53.299Z,9.90
2018-10-05T06:48:21.533Z,10.00
2018-10-05T06:50:49.733Z,10.00
2018-10-05T06:53:18.125Z,10.00
2018-10-05T06:55:46.294Z,10.10
2018-10-05T06:58:14.492Z,10.10
2018-10-05T07:00:42.819Z,10.20
2018-10-05T07:03:11.026Z,10.40
2018-10-05T07:05:39.245Z,10.60
2018-10-05T07:08:07.675Z,10.70
2018-10-05T07:10:35.858Z,10.70
2018-10-05T07:13:04.373Z,10.80
2018-10-05T07:15:32.613Z,11.00
2018-10-05T07:18:01.040Z,11.10
2018-10-05T07:20:29.641Z,11.10
2018-10-05T07:22:57.849Z,11.20
2018-10-05T07:25:26.101Z,11.30
2018-10-05T07:27:54.296Z,11.30
2018-10-05T07:30:22.542Z,11.40
2018-10-05T07:32:50.853Z,11.50
2018-10-05T07:35:19.037Z,11.50
2018-10-05T07:37:47.339Z,11.60
2018-10-05T07:40:15.517Z,11.70
2018-10-05T07:42:43.739Z,11.90
2018-10-05T07:45:12.093Z,12.00
2018-10-05T07:47:40.305Z,12.10
2018-10-05T07:50:08.685Z,12.10
2018-10-05T07:52:37.077Z,12.20
2018-10-05T07:55:05.305Z,12.30
2018-10-05T07:57:33.754Z,12.40
2018-10-05T08:00:01.923Z,12.50
2018-10-05T08:02:30.126Z,12.60
2018-10-05T08:04:58.345Z,12.70
2018-10-05T08:07:26.569Z,12.80
2018-10-05T08:09:54.776Z,13.00
2018-10-05T08:12:22.997Z,13.10
2018-10-05T08:14:51.240Z,13.20
2018-10-05T08:17:19.441Z,13.50
2018-10-05T08:19:47.798Z,13.60
2018-10-05T08:22:16.029Z,13.80
2018-10-05T08:24:44.340Z,13.90
2018-10-05T08:27:12.693Z,13.90
2018-10-05T08:29:40.878Z,14.00
2018-10-05T08:32:09.101Z,14.00
2018-10-05T08:34:37.350Z,14.10
2018-10-05T08:37:05.656Z,14.20
2018-10-05T08:39:33.929Z,14.40
2018-10-05T08:42:02.234Z,14.40
2018-10-05T08:44:30.565Z,14.50
2018-10-05T08:46:59.136Z,14.60
2018-10-05T08:49:27.367Z,14.70
2018-10-05T08:51:56.672Z,14.80
2018-10-05T08:54:24.777Z,14.80
2018-10-05T08:56:53.001Z,14.90
2018-10-05T08:59:21.217Z,15.00
2018-10-05T09:01:49.507Z,15.10
2018-10-05T09:04:18.551Z,15.20
2018-10-05T09:06:46.843Z,15.30
2018-10-05T09:09:15.109Z,15.50
2018-10-05T09:11:43.514Z,15.50
2018-10-05T09:14:11.729Z,15.60
2018-10-05T09:16:39.938Z,15.70
2018-10-05T09:19:08.484Z,15.80
2018-10-05T09:21:36.864Z,15.90
2018-10-05T09:24:05.129Z,16.00
2018-10-05T09:26:33.359Z,16.10
2018-10-05T09:29:01.622Z,16.20
2018-10-05T09:31:31.922Z,16.20
2018-10-05T09:34:00.230Z,16.20
2018-10-05T09:36:28.673Z,16.30
2018-10-05T09:38:57.055Z,16.50
2018-10-05T09:41:25.273Z,16.50
2018-10-05T09:43:53.679Z,16.60
2018-10-05T09:46:21.931Z,16.90
2018-10-05T09:48:50.166Z,16.90
2018-10-05T09:51:18.401Z,17.00
2018-10-05T09:53:46.675Z,17.10
2018-10-05T09:56:14.907Z,17.20
2018-10-05T09:58:43.497Z,17.30
2018-10-05T10:01:17.163Z,17.40
2018-10-05T10:03:45.402Z,17.50
2018-10-05T10:06:13.702Z,17.80
2018-10-05T10:08:42.107Z,17.90
2018-10-05T10:11:10.382Z,18.10
2018-10-05T10:13:38.615Z,18.40
2018-10-05T10:16:06.857Z,18.80
2018-10-05T10:18:35.104Z,19.20
2018-10-05T10:21:03.341Z,19.50
2018-10-05T10:23:31.585Z,19.90
2018-10-05T10:26:00.570Z,20.40
2018-10-05T10:28:28.948Z,21.20
2018-10-05T10:30:57.365Z,22.20
2018-10-05T10:33:25.693Z,23.40
2018-10-05T10:35:53.967Z,24.70
2018-10-05T10:38:22.242Z,25.50
2018-10-05T10:40:50.440Z,26.20
2018-10-05T10:43:19.481Z,27.30
2018-10-05T10:45:47.701Z,28.50
2018-10-05T10:48:15.990Z,30.20
2018-10-05T10:50:44.343Z,32.20
2018-10-05T10:53:12.950Z,33.80
2018-10-05T10:55:41.144Z,34.40
2018-10-05T10:58:09.665Z,35.60
2018-10-05T11:00:38.120Z,36.30
2018-10-05T11:03:06.421Z,37.30
2018-10-05T11:05:34.593Z,38.30
2018-10-05T11:08:02.996Z,39.30
2018-10-05T11:10:31.226Z,39.90
2018-10-05T11:12:59.479Z,40.60
2018-10-05T11:15:27.914Z,41.00
2018-10-05T11:17:56.210Z,41.40
2018-10-05T11:20:24.443Z,41.80
2018-10-05T11:22:52.681Z,42.00
2018-10-05T11:25:20.901Z,42.30
2018-10-05T11:27:49.173Z,42.80
2018-10-05T11:30:17.563Z,42.80
2018-10-05T11:32:45.808Z,42.80
2018-10-05T11:35:14.243Z,42.70
2018-10-05T11:37:42.641Z,42.10
2018-10-05T11:40:10.874Z,41.90
2018-10-05T11:42:39.129Z,42.10
2018-10-05T11:45:07.373Z,42.40
2018-10-05T11:47:35.606Z,42.80
2018-10-05T11:50:03.907Z,43.10
2018-10-05T11:52:32.182Z,43.20
2018-10-05T11:55:00.370Z,43.50
2018-10-05T11:57:28.627Z,43.60
2018-10-05T11:59:56.864Z,43.80
2018-10-05T12:02:25.172Z,43.60
2018-10-05T12:04:53.337Z,43.90
2018-10-05T12:07:21.886Z,44.20
2018-10-05T12:09:50.117Z,43.90
2018-10-05T12:12:18.361Z,44.00
2018-10-05T12:14:46.669Z,43.80
2018-10-05T12:17:14.941Z,43.80
2018-10-05T12:19:43.251Z,44.00
2018-10-05T12:22:11.905Z,44.10
2018-10-05T12:24:40.108Z,43.60
2018-10-05T12:27:08.366Z,43.10
2018-10-05T12:29:36.597Z,42.80
2018-10-05T12:32:05.022Z,42.50
2018-10-05T12:34:33.238Z,42.70
2018-10-05T12:37:01.763Z,43.10
2018-10-05T12:39:30.134Z,43.10
2018-10-05T12:41:58.602Z,43.40
2018-10-05T12:44:27.042Z,43.60
2018-10-05T12:46:55.264Z,44.20
2018-10-05T12:49:23.470Z,43.90
2018-10-05T12:51:51.717Z,44.00
2018-10-05T12:54:19.971Z,43.80
2018-10-05T12:56:48.217Z,43.90
2018-10-05T12:59:16.456Z,43.80
2018-10-05T13:01:44.697Z,43.70
2018-10-05T13:04:12.948Z,44.00
2018-10-05T13:06:41.290Z,44.20
2018-10-05T13:09:09.672Z,44.30
2018-10-05T13:11:38.452Z,44.60
2018-10-05T13:14:07.118Z,45.00
2018-10-05T13:16:35.436Z,44.90
2018-10-05T13:19:03.917Z,45.00
2018-10-05T13:21:33.509Z,45.30
2018-10-05T13:24:03.836Z,45.70
2018-10-05T13:26:32.066Z,45.80
2018-10-05T13:29:00.637Z,45.70
2018-10-05T13:31:28.878Z,45.60
2018-10-05T13:33:57.127Z,45.70
2018-10-05T13:36:25.304Z,45.70
2018-10-05T13:38:53.799Z,45.50
2018-10-05T13:41:22.022Z,45.70
2018-10-05T13:43:50.236Z,45.90
2018-10-05T13:46:18.449Z,45.90
2018-10-05T13:48:46.686Z,45.80
2018-10-05T13:51:15.101Z,45.70
2018-10-05T13:53:43.358Z,45.60
2018-10-05T13:56:11.714Z,45.70
2018-10-05T13:58:39.942Z,46.20
2018-10-05T14:01:08.145Z,46.30
2018-10-05T14:03:36.389Z,46.60
2018-10-05T14:06:04.750Z,46.70
2018-10-05T14:08:33.063Z,46.80
2018-10-05T14:11:01.500Z,46.90
2018-10-05T14:13:31.359Z,46.90
2018-10-05T14:15:59.668Z,47.00
2018-10-05T14:18:28.051Z,47.20
2018-10-05T14:20:56.288Z,46.90
2018-10-05T14:23:24.584Z,46.80
2018-10-05T14:25:52.845Z,46.90
2018-10-05T14:28:21.078Z,46.80
2018-10-05T14:30:49.281Z,46.60
2018-10-05T14:33:17.826Z,45.10
2018-10-05T14:35:46.273Z,42.70
2018-10-05T14:38:14.511Z,40.10
2018-10-05T14:40:42.734Z,37.50
2018-10-05T14:43:11.025Z,35.40
2018-10-05T14:45:39.399Z,33.60
2018-10-05T14:48:07.586Z,32.00
2018-10-05T14:50:35.871Z,30.60
2018-10-05T14:53:04.076Z,29.60
2018-10-05T14:55:32.298Z,28.70
2018-10-05T14:58:00.728Z,28.10
2018-10-05T15:00:28.963Z,27.40
2018-10-05T15:02:57.156Z,26.80
2018-10-05T15:05:25.418Z,26.30
2018-10-05T15:07:53.626Z,26.00
2018-10-05T15:10:21.865Z,25.80
2018-10-05T15:12:50.159Z,25.50
2018-10-05T15:15:18.329Z,25.30
2018-10-05T15:17:46.562Z,24.90
2018-10-05T15:20:15.005Z,24.60
2018-10-05T15:22:43.285Z,24.40
2018-10-05T15:25:11.574Z,24.10
2018-10-05T15:27:39.973Z,23.90
2018-10-05T15:30:08.250Z,23.90
2018-10-05T15:32:36.545Z,23.70
2018-10-05T15:35:04.731Z,23.50
2018-10-05T15:37:33.006Z,23.30
2018-10-05T15:40:01.307Z,23.20
2018-10-05T15:42:34.031Z,23.10
2018-10-05T15:45:02.448Z,23.00
2018-10-05T15:47:30.724Z,22.90
2018-10-05T15:49:58.948Z,22.70
2018-10-05T15:52:27.162Z,22.60
2018-10-05T15:54:55.451Z,22.50
2018-10-05T15:57:23.669Z,22.40
2018-10-05T15:59:51.913Z,22.30
2018-10-05T16:02:20.177Z,22.20
2018-10-05T16:04:48.582Z,22.10
2018-10-05T16:07:16.838Z,22.00
2018-10-05T16:09:45.110Z,21.80
2018-10-05T16:12:13.312Z,21.70
2018-10-05T16:14:41.556Z,21.50
2018-10-05T16:17:09.793Z,21.40
2018-10-05T16:19:38.038Z,21.30
2018-10-05T16:22:06.457Z,21.30
2018-10-05T16:24:36.443Z,21.20
2018-10-05T16:27:05.195Z,21.10
2018-10-05T16:29:33.676Z,21.10
2018-10-05T16:32:01.866Z,21.00
2018-10-05T16:34:30.147Z,20.90
2018-10-05T16:36:58.330Z,20.80
2018-10-05T16:39:26.666Z,20.70
2018-10-05T16:41:54.897Z,20.60
2018-10-05T16:44:23.409Z,20.50
2018-10-05T16:46:51.661Z,20.40
2018-10-05T16:49:20.014Z,20.30
2018-10-05T16:51:48.306Z,20.30
2018-10-05T16:54:16.573Z,20.20
2018-10-05T16:56:44.853Z,20.10
2018-10-05T16:59:13.134Z,20.00
2018-10-05T17:01:41.365Z,19.90
2018-10-05T17:04:09.594Z,19.80
2018-10-05T17:06:37.943Z,19.70
2018-10-05T17:09:08.972Z,19.70
2018-10-05T17:11:38.525Z,19.50
2018-10-05T17:14:06.851Z,19.40
2018-10-05T17:16:35.078Z,19.30
2018-10-05T17:19:03.679Z,19.30
2018-10-05T17:21:32.357Z,19.20
2018-10-05T17:24:00.777Z,19.20
2018-10-05T17:26:29.143Z,19.10
2018-10-05T17:28:57.389Z,19.10
2018-10-05T17:31:25.621Z,19.00
2018-10-05T17:33:54.018Z,18.90
2018-10-05T17:36:22.277Z,18.90
2018-10-05T17:38:50.488Z,18.80
2018-10-05T17:41:18.712Z,18.80
2018-10-05T17:43:46.953Z,18.70
2018-10-05T17:46:15.213Z,18.60
2018-10-05T17:48:43.419Z,18.60
2018-10-05T17:51:11.697Z,18.50
2018-10-05T17:53:39.909Z,18.40
2018-10-05T17:56:08.611Z,18.30
2018-10-05T17:58:36.778Z,18.30
2018-10-05T18:01:05.032Z,18.30
2018-10-05T18:03:33.245Z,18.30
2018-10-05T18:06:01.495Z,18.20
2018-10-05T18:08:29.783Z,18.10
2018-10-05T18:10:58.218Z,18.10
2018-10-05T18:13:26.480Z,18.00
2018-10-05T18:15:54.715Z,18.00
2018-10-05T18:18:23.213Z,17.90
2018-10-05T18:20:51.622Z,17.90
2018-10-05T18:23:19.897Z,17.80
2018-10-05T18:25:48.301Z,17.80
2018-10-05T18:28:16.525Z,17.70
2018-10-05T18:30:44.756Z,17.70
2018-10-05T18:33:12.988Z,17.60
2018-10-05T18:35:41.259Z,17.60
2018-10-05T18:38:09.542Z,17.60
2018-10-05T18:40:37.989Z,17.60
2018-10-05T18:43:06.244Z,17.50
2018-10-05T18:45:34.689Z,17.50
2018-10-05T18:48:03.016Z,17.40
2018-10-05T18:50:31.218Z,17.40
2018-10-05T18:52:59.483Z,17.40
2018-10-05T18:55:27.782Z,17.30
2018-10-05T18:57:56.033Z,17.30
2018-10-05T19:00:24.234Z,17.30
2018-10-05T19:02:52.486Z,17.20
2018-10-05T19:05:20.723Z,17.20
2018-10-05T19:07:49.334Z,17.20
2018-10-05T19:10:17.529Z,17.10
2018-10-05T19:12:45.758Z,17.10
2018-10-05T19:15:14.097Z,17.00
2018-10-05T19:17:42.312Z,17.00
2018-10-05T19:20:10.549Z,16.90
2018-10-05T19:22:38.813Z,16.90
2018-10-05T19:25:07.310Z,16.90
2018-10-05T19:27:35.546Z,16.80
2018-10-05T19:30:03.861Z,16.80
2018-10-05T19:32:32.104Z,16.80
2018-10-05T19:35:00.350Z,16.80
2018-10-05T19:37:28.749Z,16.70
2018-10-05T19:39:56.974Z,16.70
2018-10-05T19:42:25.199Z,16.60
2018-10-05T19:44:53.466Z,16.60
2018-10-05T19:47:21.795Z,16.60
2018-10-05T19:49:50.114Z,16.50
2018-10-05T19:52:18.383Z,16.50
2018-10-05T19:54:46.577Z,16.40
2018-10-05T19:57:14.842Z,16.40
2018-10-05T19:59:43.085Z,16.40
2018-10-05T20:02:11.392Z,16.30
2018-10-05T20:04:39.530Z,16.30
2018-10-05T20:07:08.054Z,16.20
2018-10-05T20:09:36.541Z,16.20
2018-10-05T20:12:04.765Z,16.10
2018-10-05T20:14:32.991Z,16.10
2018-10-05T20:17:01.358Z,16.10
2018-10-05T20:19:29.723Z,16.00
2018-10-05T20:21:57.937Z,16.00
2018-10-05T20:24:26.336Z,15.90
2018-10-05T20:26:54.489Z,15.90
2018-10-05T20:29:22.701Z,15.90
2018-10-05T20:31:51.072Z,15.80
2018-10-05T20:34:19.322Z,15.70
2018-10-05T20:36:47.737Z,15.70
2018-10-05T20:39:15.761Z,15.70
2018-10-05T20:41:44.026Z,15.70
2018-10-05T20:44:12.257Z,15.70
2018-10-05T20:46:40.503Z,15.70
2018-10-05T20:49:08.754Z,15.60
2018-10-05T20:51:37.881Z,15.50
2018-10-05T20:54:06.077Z,15.50
2018-10-05T20:56:34.299Z,15.50
2018-10-05T20:59:02.529Z,15.40
2018-10-05T21:01:30.807Z,15.40
2018-10-05T21:03:59.030Z,15.40
2018-10-05T21:06:27.247Z,15.30
2018-10-05T21:08:55.495Z,15.30
2018-10-05T21:11:23.705Z,15.20
2018-10-05T21:13:51.981Z,15.20
2018-10-05T21:16:20.225Z,15.10
2018-10-05T21:18:48.462Z,15.00
2018-10-05T21:21:16.728Z,15.00
2018-10-05T21:23:44.989Z,15.00
2018-10-05T21:26:13.235Z,15.00
2018-10-05T21:28:41.494Z,15.00
2018-10-05T21:31:09.762Z,15.00
2018-10-05T21:33:38.045Z,15.00
2018-10-05T21:36:06.650Z,14.90
2018-10-05T21:38:34.968Z,14.80
2018-10-05T21:41:03.303Z,14.80
2018-10-05T21:43:31.570Z,14.70
2018-10-05T21:45:59.869Z,14.60
2018-10-05T21:48:28.263Z,14.60
2018-10-05T21:50:56.497Z,14.50
2018-10-05T21:53:24.797Z,14.40
2018-10-05T21:55:53.064Z,14.40
2018-10-05T21:58:21.544Z,14.30
2018-10-05T22:00:49.796Z,14.20
2018-10-05T22:03:18.026Z,14.20
2018-10-05T22:05:46.306Z,14.10
2018-10-05T22:08:14.582Z,14.10
2018-10-05T22:10:42.801Z,14.10
2018-10-05T22:13:11.032Z,14.00
2018-10-05T22:15:39.422Z,13.90
2018-10-05T22:18:07.649Z,13.90
2018-10-05T22:20:36.027Z,13.80
2018-10-05T22:23:04.310Z,13.80
2018-10-05T22:25:32.639Z,13.80
2018-10-05T22:28:00.877Z,13.80
2018-10-05T22:30:29.073Z,13.80
2018-10-05T22:32:57.288Z,13.80
2018-10-05T22:35:25.497Z,13.80
2018-10-05T22:37:53.753Z,13.80
2018-10-05T22:40:21.972Z,13.80
2018-10-05T22:42:50.222Z,13.90
2018-10-05T22:45:18.421Z,13.90
2018-10-05T22:47:46.649Z,13.90
2018-10-05T22:50:14.863Z,13.90
2018-10-05T22:52:43.188Z,13.90
2018-10-05T22:55:11.370Z,13.90
2018-10-05T22:57:39.635Z,13.90
2018-10-05T23:00:07.885Z,13.90
2018-10-05T23:02:36.110Z,13.90
2018-10-05T23:05:04.413Z,13.90
2018-10-05T23:07:32.687Z,13.90
2018-10-05T23:10:00.907Z,13.90
2018-10-05T23:12:29.231Z,13.90
2018-10-05T23:14:57.494Z,13.80
2018-10-05T23:17:25.701Z,13.60
2018-10-05T23:19:54.021Z,13.50
2018-10-05T23:22:22.280Z,13.40
2018-10-05T23:24:50.535Z,13.30
2018-10-05T23:27:18.917Z,13.20
2018-10-05T23:29:47.187Z,13.10
2018-10-05T23:32:15.443Z,13.10
2018-10-05T23:34:43.679Z,13.00
2018-10-05T23:37:11.952Z,13.00
2018-10-05T23:39:40.205Z,13.00
2018-10-05T23:42:08.439Z,13.00
2018-10-05T23:44:36.695Z,13.00
2018-10-05T23:47:05.031Z,13.00
2018-10-05T23:49:33.431Z,13.00
2018-10-05T23:52:12.445Z,13.00
2018-10-05T23:54:40.719Z,13.00
2018-10-05T23:57:08.976Z,12.90
2018-10-05T23:59:37.222Z,12.90
